Time;durP1;ratioP1;P1;durP2;ratioP2;P2;SDS_P1;SDS_P2;PMS_P1;PMS_P2;Temp;Humidity;BMP_temperature;BMP_pressure;BME280_temperature;BME280_humidity;BME280_pressure;Samples;Min_cycle;Max_cycle;Signal;HPM_P1;HPM_P2
2021/09/20 00:00:18;;;;;;;;;;;10.70;44.40;;;;;;4327238;33;20479;-39
2021/09/20 00:02:45;;;;;;;;;;;10.70;44.60;;;;;;4327564;33;20042;-40
2021/09/20 00:05:11;;;;;;;;;;;10.70;44.70;;;;;;4315121;33;20057;-39
2021/09/20 00:07:38;;;;;;;;;;;10.70;45.00;;;;;;4326912;33;19963;-40
2021/09/20 00:10:08;;;;;;;;;;;10.70;45.30;;;;;;4327231;33;20337;-39
2021/09/20 00:12:35;;;;;;;;;;;10.70;45.40;;;;;;4326713;33;19986;-40
2021/09/20 00:15:01;;;;;;;;;;;10.70;45.70;;;;;;4327361;33;19967;-39
2021/09/20 00:17:27;;;;;;;;;;;10.70;45.70;;;;;;4326634;33;19971;-39
2021/09/20 00:19:54;;;;;;;;;;;10.60;46.10;;;;;;4327287;33;20056;-38
2021/09/20 00:22:20;;;;;;;;;;;10.60;46.30;;;;;;4327297;33;20372;-40
2021/09/20 00:24:46;;;;;;;;;;;10.60;46.50;;;;;;4351261;32;19976;-41
2021/09/20 00:27:12;;;;;;;;;;;10.60;46.80;;;;;;4356533;32;19992;-41
2021/09/20 00:29:38;;;;;;;;;;;10.60;47.30;;;;;;4356426;32;20083;-40
2021/09/20 00:32:05;;;;;;;;;;;10.60;47.50;;;;;;4344414;32;19998;-40
2021/09/20 00:34:31;;;;;;;;;;;10.60;47.80;;;;;;4355899;32;19985;-41
2021/09/20 00:36:57;;;;;;;;;;;10.50;47.80;;;;;;4356314;32;20402;-40
2021/09/20 00:39:23;;;;;;;;;;;10.50;47.80;;;;;;4356613;32;19962;-41
2021/09/20 00:41:49;;;;;;;;;;;10.50;47.70;;;;;;4356155;32;19969;-39
2021/09/20 00:44:16;;;;;;;;;;;10.50;47.60;;;;;;4358206;32;19970;-41
2021/09/20 00:46:42;;;;;;;;;;;10.50;47.60;;;;;;4358658;32;19977;-39
2021/09/20 00:49:08;;;;;;;;;;;10.50;47.50;;;;;;4348741;32;20135;-40
2021/09/20 00:51:34;;;;;;;;;;;10.60;47.50;;;;;;4326159;33;19979;-40
2021/09/20 00:54:00;;;;;;;;;;;10.60;47.50;;;;;;4326631;33;19971;-41
2021/09/20 00:56:27;;;;;;;;;;;10.60;47.40;;;;;;4326384;33;20414;-39
2021/09/20 00:58:53;;;;;;;;;;;10.70;47.50;;;;;;4326821;33;19959;-39
2021/09/20 01:01:19;;;;;;;;;;;10.70;47.50;;;;;;4326794;33;19978;-40
2021/09/20 01:03:45;;;;;;;;;;;10.70;47.80;;;;;;4326759;33;19990;-40
2021/09/20 01:06:11;;;;;;;;;;;10.70;48.20;;;;;;4326800;33;19995;-39
2021/09/20 01:08:37;;;;;;;;;;;10.70;48.60;;;;;;4326169;33;19975;-39
2021/09/20 01:11:04;;;;;;;;;;;10.60;48.80;;;;;;4326131;33;19994;-39
2021/09/20 01:13:30;;;;;;;;;;;10.60;48.90;;;;;;4326223;33;20025;-41
2021/09/20 01:15:56;;;;;;;;;;;10.60;49.00;;;;;;4326490;33;20084;-41
2021/09/20 01:18:22;;;;;;;;;;;10.70;49.20;;;;;;4326396;33;19966;-40
2021/09/20 01:20:48;;;;;;;;;;;10.70;49.30;;;;;;4326443;33;20092;-40
2021/09/20 01:23:14;;;;;;;;;;;10.70;49.50;;;;;;4339413;33;19969;-41
2021/09/20 01:25:42;;;;;;;;;;;10.70;49.70;;;;;;4318027;33;20344;-41
2021/09/20 01:28:09;;;;;;;;;;;10.70;50.00;;;;;;4343549;33;20394;-40
2021/09/20 01:30:35;;;;;;;;;;;10.60;50.20;;;;;;4329722;33;19967;-39
2021/09/20 01:33:01;;;;;;;;;;;10.60;50.50;;;;;;4343466;33;20037;-41
2021/09/20 01:35:27;;;;;;;;;;;10.60;50.70;;;;;;4343676;33;20047;-37
2021/09/20 01:37:54;;;;;;;;;;;10.60;50.70;;;;;;4343707;33;19966;-40
2021/09/20 01:40:20;;;;;;;;;;;10.60;50.80;;;;;;4343258;33;19966;-41
2021/09/20 01:42:46;;;;;;;;;;;10.60;50.90;;;;;;4343398;33;19966;-40
2021/09/20 01:45:13;;;;;;;;;;;10.50;50.90;;;;;;4344198;32;19958;-41
2021/09/20 01:47:39;;;;;;;;;;;10.50;51.10;;;;;;4346971;32;19983;-40
2021/09/20 01:50:07;;;;;;;;;;;10.40;51.30;;;;;;4347641;32;19958;-39
2021/09/20 01:52:33;;;;;;;;;;;10.40;51.70;;;;;;4361149;32;19985;-40
2021/09/20 01:54:59;;;;;;;;;;;10.40;51.80;;;;;;4347211;32;19982;-39
2021/09/20 01:57:26;;;;;;;;;;;10.40;51.70;;;;;;4334998;32;19998;-40
2021/09/20 01:59:52;;;;;;;;;;;10.40;51.80;;;;;;4361424;32;19974;-41
2021/09/20 02:02:18;;;;;;;;;;;10.50;51.70;;;;;;4361107;32;19972;-40
2021/09/20 02:04:45;;;;;;;;;;;10.50;51.50;;;;;;4360957;32;19975;-40
2021/09/20 02:07:11;;;;;;;;;;;10.50;51.20;;;;;;4360790;32;19975;-39
2021/09/20 02:09:37;;;;;;;;;;;10.50;51.30;;;;;;4361028;32;19981;-39
2021/09/20 02:12:03;;;;;;;;;;;10.50;51.40;;;;;;4360712;32;20427;-39
2021/09/20 02:14:29;;;;;;;;;;;10.60;51.60;;;;;;4313783;33;19995;-38
2021/09/20 02:16:56;;;;;;;;;;;10.50;51.80;;;;;;4312518;33;19972;-40
2021/09/20 02:19:22;;;;;;;;;;;10.50;51.80;;;;;;4314232;33;19964;-39
2021/09/20 02:21:48;;;;;;;;;;;10.50;51.70;;;;;;4301903;33;19983;-39
2021/09/20 02:24:14;;;;;;;;;;;10.50;51.90;;;;;;4313898;33;20051;-39
2021/09/20 02:26:40;;;;;;;;;;;10.50;52.00;;;;;;4313980;33;19960;-40
2021/09/20 02:29:07;;;;;;;;;;;10.50;52.00;;;;;;4313978;33;19967;-39
2021/09/20 02:31:33;;;;;;;;;;;10.50;51.90;;;;;;4314138;33;20537;-40
2021/09/20 02:33:59;;;;;;;;;;;10.50;52.20;;;;;;4299475;33;20416;-40
2021/09/20 02:36:25;;;;;;;;;;;10.50;51.90;;;;;;4299253;33;19967;-40
2021/09/20 02:38:51;;;;;;;;;;;10.50;51.90;;;;;;4299191;33;19991;-40
2021/09/20 02:41:20;;;;;;;;;;;10.50;51.70;;;;;;4298979;33;20444;-38
2021/09/20 02:43:46;;;;;;;;;;;10.50;51.70;;;;;;4299381;33;19975;-39
2021/09/20 02:46:13;;;;;;;;;;;10.50;51.70;;;;;;4333795;33;19966;-39
2021/09/20 02:48:39;;;;;;;;;;;10.60;51.60;;;;;;4336046;33;19978;-39
2021/09/20 02:51:05;;;;;;;;;;;10.60;51.60;;;;;;4327802;33;20375;-39
2021/09/20 02:53:31;;;;;;;;;;;10.60;51.50;;;;;;4328421;33;20594;-42
2021/09/20 02:55:57;;;;;;;;;;;10.60;51.40;;;;;;4328499;33;20001;-39
2021/09/20 02:58:24;;;;;;;;;;;10.70;51.20;;;;;;4327836;33;19977;-40
2021/09/20 03:00:50;;;;;;;;;;;10.70;51.10;;;;;;4316086;33;20577;-41
2021/09/20 03:03:16;;;;;;;;;;;10.70;51.00;;;;;;4328067;33;20499;-40
2021/09/20 03:05:42;;;;;;;;;;;10.70;50.80;;;;;;4341270;33;20060;-39
2021/09/20 03:08:08;;;;;;;;;;;10.80;50.80;;;;;;4345020;33;20440;-40
2021/09/20 03:10:35;;;;;;;;;;;10.80;50.70;;;;;;4345263;33;19974;-42
2021/09/20 03:13:01;;;;;;;;;;;10.90;50.60;;;;;;4345787;33;19963;-40
2021/09/20 03:15:27;;;;;;;;;;;11.00;50.50;;;;;;4345267;33;19979;-40
2021/09/20 03:17:54;;;;;;;;;;;11.10;50.50;;;;;;4357113;32;20070;-41
2021/09/20 03:20:20;;;;;;;;;;;11.20;50.60;;;;;;4360091;32;19981;-40
2021/09/20 03:22:46;;;;;;;;;;;11.30;50.60;;;;;;4359989;32;20475;-38
2021/09/20 03:25:12;;;;;;;;;;;11.30;50.60;;;;;;4360091;32;20396;-40
2021/09/20 03:27:39;;;;;;;;;;;11.50;50.50;;;;;;4359781;32;19966;-41
2021/09/20 03:30:06;;;;;;;;;;;11.70;50.50;;;;;;4359707;32;20054;-43
2021/09/20 03:32:32;;;;;;;;;;;11.90;50.30;;;;;;4360465;32;19969;-44
2021/09/20 03:34:58;;;;;;;;;;;12.10;50.00;;;;;;4359206;32;20528;-41
2021/09/20 03:37:24;;;;;;;;;;;12.30;49.70;;;;;;4359669;32;19994;-43
2021/09/20 03:39:51;;;;;;;;;;;12.50;49.30;;;;;;4359921;32;20036;-39
2021/09/20 03:42:17;;;;;;;;;;;12.70;48.90;;;;;;4359660;32;19967;-41
2021/09/20 03:44:43;;;;;;;;;;;12.80;48.30;;;;;;4345681;32;20419;-40
2021/09/20 03:47:09;;;;;;;;;;;12.90;47.50;;;;;;4359445;32;19977;-40
2021/09/20 03:49:35;;;;;;;;;;;13.00;46.80;;;;;;4332521;33;20500;-39
2021/09/20 03:52:02;;;;;;;;;;;13.00;46.70;;;;;;4344538;33;19978;-41
2021/09/20 03:54:28;;;;;;;;;;;13.10;46.50;;;;;;4344867;33;20005;-41
2021/09/20 03:56:54;;;;;;;;;;;13.10;46.30;;;;;;4344902;33;20129;-41
2021/09/20 03:59:21;;;;;;;;;;;13.20;46.10;;;;;;4344423;33;20382;-41
2021/09/20 04:01:47;;;;;;;;;;;13.30;45.80;;;;;;4344727;33;19994;-41
2021/09/20 04:04:13;;;;;;;;;;;13.50;45.80;;;;;;4345008;33;19979;-39
2021/09/20 04:06:39;;;;;;;;;;;13.60;45.60;;;;;;4344657;33;19987;-41
2021/09/20 04:09:05;;;;;;;;;;;13.70;45.40;;;;;;4344079;32;19970;-41
2021/09/20 04:11:32;;;;;;;;;;;13.90;45.30;;;;;;4330918;33;20390;-41
2021/09/20 04:13:58;;;;;;;;;;;14.10;45.00;;;;;;4344473;33;20020;-40
2021/09/20 04:16:24;;;;;;;;;;;14.30;44.80;;;;;;4343887;33;19974;-42
2021/09/20 04:18:50;;;;;;;;;;;14.50;44.30;;;;;;4344676;33;20018;-40
2021/09/20 04:21:16;;;;;;;;;;;14.70;43.80;;;;;;4344359;33;19985;-41
2021/09/20 04:23:42;;;;;;;;;;;14.90;43.60;;;;;;4344030;33;19997;-40
2021/09/20 04:26:09;;;;;;;;;;;15.10;43.50;;;;;;4343995;33;20442;-40
2021/09/20 04:28:35;;;;;;;;;;;15.30;42.80;;;;;;4344389;33;19966;-39
2021/09/20 04:31:01;;;;;;;;;;;15.50;42.40;;;;;;4343735;33;19967;-41
2021/09/20 04:33:27;;;;;;;;;;;15.70;41.40;;;;;;4344023;33;19978;-40
2021/09/20 04:35:53;;;;;;;;;;;15.90;41.60;;;;;;4329962;33;19979;-39
2021/09/20 04:38:19;;;;;;;;;;;16.10;41.40;;;;;;4343992;33;19990;-39
2021/09/20 04:40:46;;;;;;;;;;;16.40;40.90;;;;;;4343634;33;20047;-40
2021/09/20 04:43:12;;;;;;;;;;;16.60;40.20;;;;;;4344288;33;19985;-40
2021/09/20 04:45:39;;;;;;;;;;;16.90;39.60;;;;;;4343941;33;19993;-38
2021/09/20 04:48:09;;;;;;;;;;;17.10;39.30;;;;;;4344133;33;19985;-41
2021/09/20 04:50:43;;;;;;;;;;;17.30;38.50;;;;;;4344023;33;20058;-41
2021/09/20 04:53:09;;;;;;;;;;;17.50;37.80;;;;;;4343958;33;20060;-38
2021/09/20 04:55:36;;;;;;;;;;;17.70;37.20;;;;;;4343848;33;19963;-40
2021/09/20 04:58:09;;;;;;;;;;;17.90;37.20;;;;;;4329744;33;20084;-39
2021/09/20 05:00:35;;;;;;;;;;;18.20;36.10;;;;;;4330198;33;19994;-40
2021/09/20 05:03:02;;;;;;;;;;;18.40;35.70;;;;;;4343721;33;20036;-39
2021/09/20 05:05:28;;;;;;;;;;;18.50;35.90;;;;;;4343228;33;20427;-40
2021/09/20 05:07:54;;;;;;;;;;;18.80;35.50;;;;;;4343555;33;20367;-41
2021/09/20 05:10:20;;;;;;;;;;;18.90;35.30;;;;;;4343270;33;20058;-39
2021/09/20 05:12:47;;;;;;;;;;;19.10;34.80;;;;;;4330117;33;20108;-40
2021/09/20 05:15:14;;;;;;;;;;;19.30;33.50;;;;;;4343668;33;19974;-40
2021/09/20 05:17:41;;;;;;;;;;;19.40;32.40;;;;;;4343156;33;19974;-42
2021/09/20 05:20:08;;;;;;;;;;;19.60;32.50;;;;;;4343646;33;20363;-40
2021/09/20 05:22:34;;;;;;;;;;;19.70;33.40;;;;;;4343679;33;19966;-41
2021/09/20 05:25:01;;;;;;;;;;;19.90;32.60;;;;;;4343284;33;20420;-41
2021/09/20 05:27:28;;;;;;;;;;;20.10;31.60;;;;;;4343569;33;19975;-41
2021/09/20 05:29:58;;;;;;;;;;;20.20;31.30;;;;;;4342980;33;20446;-39
2021/09/20 05:32:24;;;;;;;;;;;20.30;31.00;;;;;;4343033;33;19959;-40
2021/09/20 05:34:51;;;;;;;;;;;20.40;30.80;;;;;;4343719;33;20060;-39
2021/09/20 05:37:17;;;;;;;;;;;20.50;30.60;;;;;;4343208;33;20360;-41
2021/09/20 05:39:43;;;;;;;;;;;20.60;30.20;;;;;;4329457;33;20477;-39
2021/09/20 05:42:10;;;;;;;;;;;20.70;30.00;;;;;;4343639;33;20637;-39
2021/09/20 05:44:36;;;;;;;;;;;20.80;29.90;;;;;;4343699;33;20026;-40
2021/09/20 05:47:02;;;;;;;;;;;20.90;30.00;;;;;;4343485;33;20027;-39
2021/09/20 05:49:29;;;;;;;;;;;21.00;29.80;;;;;;4355315;32;20378;-39
2021/09/20 05:51:55;;;;;;;;;;;21.20;29.80;;;;;;4358351;32;20054;-40
2021/09/20 05:54:21;;;;;;;;;;;21.40;30.00;;;;;;4357854;32;19959;-39
2021/09/20 05:56:47;;;;;;;;;;;21.50;29.30;;;;;;4358342;32;19974;-39
2021/09/20 05:59:13;;;;;;;;;;;21.50;29.20;;;;;;4357928;32;19974;-38
2021/09/20 06:01:40;;;;;;;;;;;21.50;28.80;;;;;;4358602;32;20094;-40
2021/09/20 06:04:06;;;;;;;;;;;21.50;28.60;;;;;;4358001;32;20071;-40
2021/09/20 06:06:32;;;;;;;;;;;21.60;28.40;;;;;;4358236;32;19986;-39
2021/09/20 06:08:58;;;;;;;;;;;21.50;27.60;;;;;;4358167;32;19962;-39
2021/09/20 06:11:24;;;;;;;;;;;21.50;28.00;;;;;;4358219;32;20029;-39
2021/09/20 06:13:51;;;;;;;;;;;21.60;28.20;;;;;;4358179;32;19985;-39
2021/09/20 06:16:17;;;;;;;;;;;21.80;28.50;;;;;;4357722;32;19978;-39
2021/09/20 06:18:43;;;;;;;;;;;22.00;28.00;;;;;;4357882;32;19990;-39
2021/09/20 06:21:09;;;;;;;;;;;22.10;28.00;;;;;;4358045;32;20084;-38
2021/09/20 06:23:36;;;;;;;;;;;22.10;27.60;;;;;;4357979;32;19966;-39
2021/09/20 06:26:02;;;;;;;;;;;22.10;27.70;;;;;;4357660;32;19966;-40
2021/09/20 06:28:28;;;;;;;;;;;22.20;26.90;;;;;;4357703;32;19967;-40
2021/09/20 06:30:54;;;;;;;;;;;22.30;27.00;;;;;;4357607;32;20414;-39
2021/09/20 06:33:21;;;;;;;;;;;22.50;27.30;;;;;;4359936;32;20009;-39
2021/09/20 06:35:47;;;;;;;;;;;22.70;27.10;;;;;;4360166;32;19978;-39
2021/09/20 06:38:13;;;;;;;;;;;22.90;27.10;;;;;;4360685;32;19962;-40
2021/09/20 06:40:39;;;;;;;;;;;23.10;27.10;;;;;;4360454;32;20386;-38
2021/09/20 06:43:06;;;;;;;;;;;23.30;26.70;;;;;;4360336;32;20013;-39
2021/09/20 06:45:32;;;;;;;;;;;23.50;26.60;;;;;;4360155;32;19967;-39
2021/09/20 06:48:01;;;;;;;;;;;23.60;26.10;;;;;;4357336;32;20391;-39
2021/09/20 06:50:27;;;;;;;;;;;23.70;26.00;;;;;;4345436;33;20494;-38
2021/09/20 06:52:54;;;;;;;;;;;23.80;25.50;;;;;;4345298;33;19995;-39
2021/09/20 06:55:20;;;;;;;;;;;24.00;25.40;;;;;;4345053;33;20478;-40
2021/09/20 06:58:05;;;;;;;;;;;24.20;25.50;;;;;;4344928;33;20336;-39
2021/09/20 07:00:31;;;;;;;;;;;24.40;25.60;;;;;;4345149;33;19986;-39
2021/09/20 07:02:57;;;;;;;;;;;24.50;25.70;;;;;;4331688;33;19975;-39
2021/09/20 07:05:24;;;;;;;;;;;24.70;25.50;;;;;;4345244;33;20417;-39
2021/09/20 07:07:50;;;;;;;;;;;24.80;25.30;;;;;;4345344;33;20072;-39
2021/09/20 07:10:16;;;;;;;;;;;25.00;25.10;;;;;;4331576;33;20095;-40
2021/09/20 07:12:43;;;;;;;;;;;25.00;25.00;;;;;;4345089;33;19994;-40
2021/09/20 07:15:10;;;;;;;;;;;25.00;25.10;;;;;;4345150;33;20055;-38
2021/09/20 07:17:36;;;;;;;;;;;25.00;25.00;;;;;;4344923;33;19990;-39
2021/09/20 07:20:03;;;;;;;;;;;24.90;24.90;;;;;;4344802;33;20042;-39
2021/09/20 07:22:29;;;;;;;;;;;25.00;24.80;;;;;;4345551;33;19975;-39
2021/09/20 07:24:55;;;;;;;;;;;25.10;24.10;;;;;;4331044;33;19971;-40
2021/09/20 07:27:22;;;;;;;;;;;25.10;24.40;;;;;;4344744;33;19975;-39
2021/09/20 07:29:48;;;;;;;;;;;25.20;24.40;;;;;;4345085;33;20416;-39
2021/09/20 07:32:14;;;;;;;;;;;25.30;24.20;;;;;;4345023;33;19988;-39
2021/09/20 07:34:40;;;;;;;;;;;25.40;24.40;;;;;;4344592;33;20061;-40
2021/09/20 07:37:06;;;;;;;;;;;25.40;24.30;;;;;;4330919;33;19962;-41
2021/09/20 07:39:33;;;;;;;;;;;25.30;24.00;;;;;;4344798;33;19967;-42
2021/09/20 07:42:00;;;;;;;;;;;25.10;23.60;;;;;;4344937;33;20392;-41
2021/09/20 07:44:26;;;;;;;;;;;24.90;23.80;;;;;;4344676;32;19982;-40
2021/09/20 07:46:52;;;;;;;;;;;24.70;24.30;;;;;;4344717;33;19977;-40
2021/09/20 07:49:18;;;;;;;;;;;24.70;24.40;;;;;;4355799;32;20442;-41
2021/09/20 07:51:45;;;;;;;;;;;24.70;24.40;;;;;;4359362;32;20466;-39
2021/09/20 07:54:11;;;;;;;;;;;24.90;24.40;;;;;;4359500;32;20046;-39
2021/09/20 07:56:38;;;;;;;;;;;24.90;24.20;;;;;;4358917;32;20057;-39
2021/09/20 07:59:04;;;;;;;;;;;25.00;24.30;;;;;;4359160;32;20009;-39
2021/09/20 08:01:30;;;;;;;;;;;25.00;24.20;;;;;;4359200;32;20058;-40
2021/09/20 08:03:57;;;;;;;;;;;25.10;24.30;;;;;;4359231;32;20074;-39
2021/09/20 08:06:24;;;;;;;;;;;25.10;23.90;;;;;;4359420;32;19973;-39
2021/09/20 08:08:51;;;;;;;;;;;25.20;23.70;;;;;;4359169;32;20370;-39
2021/09/20 08:11:17;;;;;;;;;;;25.20;23.70;;;;;;4345167;32;19967;-40
2021/09/20 08:13:43;;;;;;;;;;;25.40;23.90;;;;;;4358963;32;19981;-40
2021/09/20 08:16:10;;;;;;;;;;;25.50;23.90;;;;;;4345327;32;20495;-39
2021/09/20 08:18:36;;;;;;;;;;;25.60;23.40;;;;;;4345041;32;19962;-39
2021/09/20 08:21:03;;;;;;;;;;;25.60;23.30;;;;;;4345474;32;19975;-39
2021/09/20 08:23:30;;;;;;;;;;;25.40;22.80;;;;;;4345025;32;19973;-41
2021/09/20 08:25:56;;;;;;;;;;;25.20;22.80;;;;;;4359023;32;19978;-39
2021/09/20 08:28:22;;;;;;;;;;;25.00;22.90;;;;;;4358694;32;19969;-38
2021/09/20 08:30:49;;;;;;;;;;;24.80;23.10;;;;;;4359040;32;20414;-40
2021/09/20 08:33:15;;;;;;;;;;;24.80;23.40;;;;;;4358703;32;19971;-40
2021/09/20 08:35:41;;;;;;;;;;;24.90;23.30;;;;;;4358819;32;20004;-39
2021/09/20 08:38:07;;;;;;;;;;;24.90;23.20;;;;;;4344435;32;19985;-41
2021/09/20 08:40:34;;;;;;;;;;;25.10;22.90;;;;;;4344928;32;20005;-40
2021/09/20 08:43:00;;;;;;;;;;;25.10;23.10;;;;;;4332689;32;19963;-39
2021/09/20 08:45:27;;;;;;;;;;;25.20;22.90;;;;;;4358598;32;20061;-38
2021/09/20 08:47:54;;;;;;;;;;;25.30;23.00;;;;;;4342426;32;19970;-39
2021/09/20 08:50:27;;;;;;;;;;;25.40;22.90;;;;;;4343780;33;20081;-39
2021/09/20 08:52:53;;;;;;;;;;;25.50;23.10;;;;;;4343642;33;19959;-39
2021/09/20 08:55:19;;;;;;;;;;;25.50;23.20;;;;;;4313550;33;19982;-39
2021/09/20 08:57:45;;;;;;;;;;;25.50;23.10;;;;;;4326371;33;20076;-39
2021/09/20 09:00:12;;;;;;;;;;;25.40;23.20;;;;;;4326628;33;19996;-40
2021/09/20 09:02:38;;;;;;;;;;;25.40;23.20;;;;;;4326369;33;20066;-39
2021/09/20 09:05:30;;;;;;;;;;;25.20;22.90;;;;;;4326274;33;19978;-39
2021/09/20 09:08:01;;;;;;;;;;;25.10;23.10;;;;;;4326273;33;19967;-39
2021/09/20 09:10:29;;;;;;;;;;;25.00;23.00;;;;;;4326453;33;19986;-39
2021/09/20 09:12:55;;;;;;;;;;;24.80;22.80;;;;;;4326391;33;19984;-38
2021/09/20 09:15:24;;;;;;;;;;;24.50;22.60;;;;;;4326244;33;19974;-40
2021/09/20 09:17:55;;;;;;;;;;;24.30;23.00;;;;;;4326047;33;19986;-40
2021/09/20 09:20:27;;;;;;;;;;;24.20;23.20;;;;;;4326521;33;20002;-39
2021/09/20 09:22:55;;;;;;;;;;;24.00;23.40;;;;;;4326281;33;20455;-40
2021/09/20 09:25:34;;;;;;;;;;;23.80;23.30;;;;;;4327861;33;19999;-38
2021/09/20 09:28:03;;;;;;;;;;;23.70;23.40;;;;;;4343370;33;19971;-39
2021/09/20 09:30:33;;;;;;;;;;;23.50;23.60;;;;;;4329767;33;19963;-40
2021/09/20 09:33:05;;;;;;;;;;;23.50;23.60;;;;;;4329722;33;19971;-39
2021/09/20 09:35:31;;;;;;;;;;;23.50;23.80;;;;;;4342974;33;20440;-41
2021/09/20 09:38:04;;;;;;;;;;;23.60;24.00;;;;;;4343347;33;20414;-40
2021/09/20 09:40:31;;;;;;;;;;;23.70;24.10;;;;;;4343235;33;20090;-40
2021/09/20 09:42:59;;;;;;;;;;;23.90;24.10;;;;;;4343092;33;20040;-38
2021/09/20 09:45:30;;;;;;;;;;;24.00;23.80;;;;;;4343083;33;20441;-40
2021/09/20 09:48:08;;;;;;;;;;;24.00;23.60;;;;;;4345738;32;19955;-38
2021/09/20 09:50:38;;;;;;;;;;;24.00;23.40;;;;;;4357838;32;19994;-40
2021/09/20 09:53:04;;;;;;;;;;;24.00;23.40;;;;;;4358162;32;20039;-40
2021/09/20 09:55:31;;;;;;;;;;;23.90;23.60;;;;;;4358228;32;19970;-44
2021/09/20 09:58:09;;;;;;;;;;;24.00;23.70;;;;;;4358379;32;20419;-39
2021/09/20 10:00:35;;;;;;;;;;;24.10;23.80;;;;;;4344259;32;19973;-39
2021/09/20 10:03:03;;;;;;;;;;;24.20;23.80;;;;;;4357995;32;20379;-38
2021/09/20 10:05:29;;;;;;;;;;;24.30;23.50;;;;;;4357717;32;19966;-39
2021/09/20 10:07:55;;;;;;;;;;;24.50;23.60;;;;;;4361055;32;19959;-39
2021/09/20 10:10:27;;;;;;;;;;;24.50;23.50;;;;;;4360668;32;19994;-40
2021/09/20 10:12:54;;;;;;;;;;;24.50;23.60;;;;;;4361278;32;20009;-40
2021/09/20 10:15:22;;;;;;;;;;;24.50;23.30;;;;;;4360538;32;20440;-39
2021/09/20 10:17:48;;;;;;;;;;;24.50;23.40;;;;;;4360557;32;19980;-41
2021/09/20 10:20:16;;;;;;;;;;;24.60;23.50;;;;;;4360877;32;19962;-40
2021/09/20 10:22:43;;;;;;;;;;;24.60;23.50;;;;;;4360771;32;19974;-39
2021/09/20 10:25:10;;;;;;;;;;;24.60;23.40;;;;;;4360571;32;20056;-39
2021/09/20 10:27:37;;;;;;;;;;;24.60;23.40;;;;;;4360856;32;19973;-39
2021/09/20 10:30:14;;;;;;;;;;;24.60;23.60;;;;;;4346875;32;19981;-39
2021/09/20 10:32:41;;;;;;;;;;;24.60;23.50;;;;;;4360840;32;20071;-39
2021/09/20 10:35:33;;;;;;;;;;;24.60;23.50;;;;;;4360735;32;19971;-39
2021/09/20 10:38:19;;;;;;;;;;;24.60;23.50;;;;;;4360518;32;20068;-37
2021/09/20 10:41:04;;;;;;;;;;;24.60;23.50;;;;;;4360436;32;20395;-39
2021/09/20 10:43:30;;;;;;;;;;;24.60;23.60;;;;;;4348410;32;19978;-39
2021/09/20 10:45:57;;;;;;;;;;;24.80;23.60;;;;;;4360307;32;20467;-39
2021/09/20 10:48:25;;;;;;;;;;;24.80;23.00;;;;;;4354793;32;20438;-40
2021/09/20 10:50:57;;;;;;;;;;;24.80;23.00;;;;;;4345300;33;19978;-38
2021/09/20 10:53:29;;;;;;;;;;;24.80;23.00;;;;;;4332032;33;19990;-39
2021/09/20 10:56:14;;;;;;;;;;;24.60;23.00;;;;;;4345656;33;19967;-39
2021/09/20 10:58:42;;;;;;;;;;;24.40;23.10;;;;;;4332025;33;19993;-39
2021/09/20 11:01:12;;;;;;;;;;;24.30;23.40;;;;;;4345203;33;19978;-39
2021/09/20 11:03:52;;;;;;;;;;;24.30;23.40;;;;;;4345323;33;19990;-38
2021/09/20 11:06:27;;;;;;;;;;;24.20;23.50;;;;;;4314942;33;19985;-39
2021/09/20 11:08:59;;;;;;;;;;;24.30;23.60;;;;;;4328155;33;20029;-39
2021/09/20 11:11:37;;;;;;;;;;;24.30;23.70;;;;;;4328115;33;19986;-39
2021/09/20 11:14:37;;;;;;;;;;;24.30;23.60;;;;;;4328047;33;20045;-38
2021/09/20 11:17:23;;;;;;;;;;;24.40;23.60;;;;;;4303754;33;19970;-37
2021/09/20 11:19:52;;;;;;;;;;;24.60;23.60;;;;;;4328111;33;19975;-41
2021/09/20 11:22:19;;;;;;;;;;;24.70;23.40;;;;;;4328369;33;20648;-41
2021/09/20 11:24:52;;;;;;;;;;;24.70;23.20;;;;;;4327967;33;20045;-39
2021/09/20 11:27:34;;;;;;;;;;;24.60;23.20;;;;;;4327988;33;19986;-39
2021/09/20 11:30:05;;;;;;;;;;;24.60;23.50;;;;;;4315835;33;19986;-39
2021/09/20 11:32:31;;;;;;;;;;;24.60;23.60;;;;;;4327817;33;20446;-39
2021/09/20 11:34:59;;;;;;;;;;;24.60;23.70;;;;;;4328137;33;19990;-39
2021/09/20 11:37:30;;;;;;;;;;;24.80;23.60;;;;;;4327640;33;20002;-40
2021/09/20 11:39:59;;;;;;;;;;;24.80;23.30;;;;;;4327523;33;19978;-41
2021/09/20 11:42:47;;;;;;;;;;;24.70;23.20;;;;;;4327718;33;19967;-40
2021/09/20 11:45:13;;;;;;;;;;;24.60;23.40;;;;;;4344192;33;20132;-39
2021/09/20 11:47:42;;;;;;;;;;;24.50;23.50;;;;;;4345474;32;20396;-41
2021/09/20 11:50:12;;;;;;;;;;;24.30;23.60;;;;;;4359641;32;19969;-39
2021/09/20 11:52:41;;;;;;;;;;;24.20;23.80;;;;;;4359565;32;19961;-40
2021/09/20 11:55:16;;;;;;;;;;;24.00;23.80;;;;;;4359417;32;20004;-38
2021/09/20 11:57:43;;;;;;;;;;;23.90;23.90;;;;;;4359614;32;19982;-40
2021/09/20 12:00:11;;;;;;;;;;;23.90;24.00;;;;;;4359484;32;19974;-39
2021/09/20 12:02:45;;;;;;;;;;;23.90;24.10;;;;;;4359039;32;20039;-38
2021/09/20 12:05:15;;;;;;;;;;;24.00;24.00;;;;;;4359226;32;20089;-39
2021/09/20 12:07:49;;;;;;;;;;;24.00;24.00;;;;;;4359388;32;19963;-39
2021/09/20 12:10:17;;;;;;;;;;;23.90;23.80;;;;;;4345815;32;20540;-39
2021/09/20 12:12:47;;;;;;;;;;;23.80;23.80;;;;;;4358954;32;20429;-39
2021/09/20 12:15:14;;;;;;;;;;;23.70;23.80;;;;;;4359250;32;20501;-40
2021/09/20 12:17:56;;;;;;;;;;;23.70;23.90;;;;;;4358587;32;19969;-39
2021/09/20 12:20:38;;;;;;;;;;;23.60;24.00;;;;;;4359058;32;20433;-38
2021/09/20 12:23:09;;;;;;;;;;;23.60;24.00;;;;;;4359230;32;19981;-39
2021/09/20 12:25:46;;;;;;;;;;;23.60;24.20;;;;;;4358869;32;19963;-40
2021/09/20 12:28:37;;;;;;;;;;;23.70;24.20;;;;;;4358973;32;19967;-38
2021/09/20 12:31:05;;;;;;;;;;;23.90;24.10;;;;;;4358561;32;19997;-39
2021/09/20 12:34:01;;;;;;;;;;;24.00;23.80;;;;;;4358950;32;19968;-39
2021/09/20 12:36:32;;;;;;;;;;;24.00;23.40;;;;;;4358744;32;20441;-39
2021/09/20 12:39:04;;;;;;;;;;;24.00;23.50;;;;;;4345654;32;19982;-44
2021/09/20 12:41:33;;;;;;;;;;;23.90;23.60;;;;;;4358888;32;19989;-39
2021/09/20 12:43:59;;;;;;;;;;;23.90;23.90;;;;;;4359153;32;20046;-39
2021/09/20 12:46:29;;;;;;;;;;;23.80;23.70;;;;;;4358394;32;20515;-39
2021/09/20 12:48:55;;;;;;;;;;;23.80;23.90;;;;;;4349857;32;19963;-39
2021/09/20 12:51:22;;;;;;;;;;;23.80;23.90;;;;;;4330249;33;19980;-39
2021/09/20 12:53:53;;;;;;;;;;;23.90;23.80;;;;;;4343560;33;20398;-39
2021/09/20 12:56:32;;;;;;;;;;;23.90;23.60;;;;;;4329746;33;19983;-41
2021/09/20 12:59:18;;;;;;;;;;;23.80;23.40;;;;;;4343083;33;19978;-39
2021/09/20 13:01:52;;;;;;;;;;;23.70;23.40;;;;;;4343520;33;19962;-39
2021/09/20 13:04:38;;;;;;;;;;;23.50;23.50;;;;;;4343460;33;20400;-39
2021/09/20 13:07:10;;;;;;;;;;;23.40;23.70;;;;;;4343300;33;19965;-40
2021/09/20 13:09:38;;;;;;;;;;;23.20;23.80;;;;;;4343382;33;20045;-41
2021/09/20 13:12:09;;;;;;;;;;;23.00;23.80;;;;;;4343238;33;20510;-38
2021/09/20 13:14:50;;;;;;;;;;;23.00;23.90;;;;;;4343621;33;20010;-41
2021/09/20 13:17:17;;;;;;;;;;;22.80;23.90;;;;;;4343417;33;19973;-41
2021/09/20 13:20:00;;;;;;;;;;;22.60;24.10;;;;;;4311048;33;20043;-39
2021/09/20 13:22:26;;;;;;;;;;;22.50;24.10;;;;;;4311459;33;19971;-39
2021/09/20 13:24:53;;;;;;;;;;;22.40;24.20;;;;;;4311583;33;19976;-39
2021/09/20 13:27:19;;;;;;;;;;;22.30;24.20;;;;;;4311773;33;19971;-42
2021/09/20 13:29:46;;;;;;;;;;;22.30;24.30;;;;;;4311434;33;20485;-40
2021/09/20 13:32:12;;;;;;;;;;;22.20;24.40;;;;;;4311444;33;20076;-40
2021/09/20 13:34:38;;;;;;;;;;;22.10;24.60;;;;;;4311365;33;19979;-38
2021/09/20 13:37:05;;;;;;;;;;;22.10;24.80;;;;;;4311733;33;19979;-39
2021/09/20 13:39:31;;;;;;;;;;;22.00;25.40;;;;;;4311613;33;19968;-38
2021/09/20 13:41:58;;;;;;;;;;;21.90;24.90;;;;;;4313118;33;20076;-40
2021/09/20 13:44:24;;;;;;;;;;;21.90;25.10;;;;;;4314643;33;19979;-39
2021/09/20 13:46:53;;;;;;;;;;;21.80;25.10;;;;;;4314332;33;19979;-39
2021/09/20 13:49:20;;;;;;;;;;;21.70;25.20;;;;;;4310307;33;19964;-39
2021/09/20 13:51:46;;;;;;;;;;;21.70;25.30;;;;;;4330419;33;20014;-38
2021/09/20 13:54:12;;;;;;;;;;;21.60;25.30;;;;;;4345704;33;19966;-39
2021/09/20 13:56:38;;;;;;;;;;;21.50;25.40;;;;;;4346490;33;20001;-40
2021/09/20 13:59:04;;;;;;;;;;;21.50;25.50;;;;;;4346562;33;19962;-40
2021/09/20 14:01:30;;;;;;;;;;;21.40;25.50;;;;;;4345905;33;20396;-39
2021/09/20 14:03:58;;;;;;;;;;;21.40;25.60;;;;;;4345954;33;19974;-39
2021/09/20 14:06:24;;;;;;;;;;;21.30;25.70;;;;;;4345771;33;19989;-39
2021/09/20 14:08:50;;;;;;;;;;;21.20;25.70;;;;;;4345820;33;20387;-39
2021/09/20 14:11:17;;;;;;;;;;;21.10;25.80;;;;;;4345939;33;20423;-40
2021/09/20 14:13:43;;;;;;;;;;;21.00;25.90;;;;;;4346233;33;20043;-40
2021/09/20 14:16:09;;;;;;;;;;;20.90;25.80;;;;;;4345584;33;20453;-41
2021/09/20 14:18:35;;;;;;;;;;;20.80;25.90;;;;;;4332003;33;19991;-39
2021/09/20 14:21:02;;;;;;;;;;;20.70;25.80;;;;;;4345931;33;20156;-38